Time;durP1;ratioP1;P1;durP2;ratioP2;P2;SDS_P1;SDS_P2;PMS_P1;PMS_P2;Temp;Humidity;BMP_temperature;BMP_pressure;BME280_temperature;BME280_humidity;BME280_pressure;Samples;Min_cycle;Max_cycle;Signal;HPM_P1;HPM_P2
2022/12/23 00:01:37;;;;;;;29.52;18.48;;;;;;;6.66;100.00;99438.77;1754001;80;25721;-75
2022/12/23 00:04:04;;;;;;;28.27;17.82;;;;;;;6.68;100.00;99446.05;1746774;81;27523;-75
2022/12/23 00:06:30;;;;;;;30.08;20.23;;;;;;;6.71;100.00;99447.02;1753676;80;26022;-75
2022/12/23 00:08:59;;;;;;;34.20;20.45;;;;;;;6.71;100.00;99456.33;1743170;80;25713;-75
2022/12/23 00:11:27;;;;;;;36.73;21.35;;;;;;;6.72;100.00;99458.78;1752503;80;26936;-75
2022/12/23 00:16:38;;;;;;;33.63;18.60;;;;;;;6.75;100.00;99458.42;1744291;80;27524;-76
2022/12/23 00:19:04;;;;;;;36.58;21.25;;;;;;;6.76;100.00;99451.23;1720859;81;25752;-76
2022/12/23 00:21:31;;;;;;;36.33;21.02;;;;;;;6.78;100.00;99463.84;1694787;82;25731;-76
2022/12/23 00:23:57;;;;;;;35.40;21.45;;;;;;;6.79;100.00;99449.54;1735774;80;26537;-76
2022/12/23 00:26:26;;;;;;;39.63;22.17;;;;;;;6.81;100.00;99460.31;1744548;80;25315;-76
2022/12/23 00:28:57;;;;;;;40.33;23.35;;;;;;;6.81;100.00;99458.98;1739289;80;28264;-76
2022/12/23 00:31:24;;;;;;;41.75;22.07;;;;;;;6.82;100.00;99461.14;1740257;80;25841;-76
2022/12/23 00:33:53;;;;;;;39.75;23.15;;;;;;;6.83;100.00;99468.93;1723339;82;26429;-76
2022/12/23 00:36:26;;;;;;;37.75;22.70;;;;;;;6.83;100.00;99467.59;1693518;83;25964;-76
2022/12/23 00:44:24;;;;;;;38.70;23.15;;;;;;;6.88;100.00;99475.02;1719566;81;25938;-76
2022/12/23 00:46:50;;;;;;;41.63;22.93;;;;;;;6.90;100.00;99471.66;1717445;82;25763;-77
2022/12/23 00:52:06;;;;;;;44.73;24.30;;;;;;;6.93;100.00;99487.23;1716164;81;25783;-76
2022/12/23 00:54:33;;;;;;;43.23;23.95;;;;;;;6.93;100.00;99485.90;1692696;82;27473;-76
2022/12/23 00:57:00;;;;;;;41.55;25.05;;;;;;;6.94;100.00;99479.58;1720602;82;25855;-76
2022/12/23 00:59:26;;;;;;;45.38;25.17;;;;;;;6.94;100.00;99475.08;1685763;83;26183;-76
2022/12/23 01:07:24;;;;;;;47.13;25.97;;;;;;;6.95;100.00;99480.70;1736491;81;28613;-76
2022/12/23 01:09:50;;;;;;;50.63;26.52;;;;;;;6.96;100.00;99487.69;1738282;80;26364;-76
2022/12/23 01:12:17;;;;;;;49.98;27.87;;;;;;;6.97;100.00;99486.66;1735954;80;25762;-76
2022/12/23 01:14:43;;;;;;;49.00;25.82;;;;;;;6.98;100.00;99490.16;1741320;80;25766;-75
2022/12/23 01:17:10;;;;;;;51.40;26.27;;;;;;;6.98;100.00;99489.66;1745233;80;25892;-76
2022/12/23 01:19:36;;;;;;;50.48;26.93;;;;;;;6.98;100.00;99487.00;1737327;80;27457;-76
2022/12/23 01:22:03;;;;;;;52.85;26.52;;;;;;;6.98;100.00;99485.66;1743148;80;25773;-76
2022/12/23 01:24:31;;;;;;;50.98;26.07;;;;;;;7.00;100.00;99480.97;1747689;81;25987;-76
2022/12/23 01:26:57;;;;;;;51.35;27.20;;;;;;;7.00;100.00;99486.80;1741954;80;27002;-76
2022/12/23 01:29:25;;;;;;;54.88;27.55;;;;;;;6.98;100.00;99483.50;1747927;80;25809;-76
2022/12/23 01:31:51;;;;;;;52.60;28.25;;;;;;;6.99;100.00;99484.63;1750901;80;27538;-76
2022/12/23 01:34:17;;;;;;;52.50;26.75;;;;;;;7.00;100.00;99488.13;1751467;80;25847;-76
2022/12/23 01:36:43;;;;;;;45.83;25.95;;;;;;;7.00;100.00;99491.63;1756302;80;25721;-76
2022/12/23 01:39:10;;;;;;;50.90;24.82;;;;;;;7.02;100.00;99499.41;1753505;80;25819;-76
2022/12/23 01:44:59;;;;;;;47.00;26.80;;;;;;;7.04;100.00;99501.38;1732596;81;27528;-75
2022/12/23 01:47:34;;;;;;;46.45;25.08;;;;;;;7.06;100.00;99501.20;1696898;83;25737;-75
2022/12/23 01:50:12;;;;;;;47.30;25.82;;;;;;;7.05;100.00;99499.54;1695662;83;26514;-75
2022/12/23 01:52:43;;;;;;;47.27;25.85;;;;;;;7.06;100.00;99501.20;1694335;83;25849;-75
2022/12/23 01:55:12;;;;;;;48.40;25.35;;;;;;;7.06;100.00;99507.33;1684104;83;25974;-75
2022/12/23 01:57:41;;;;;;;51.77;26.37;;;;;;;7.05;100.00;99508.36;1718831;83;27444;-75
2022/12/23 02:05:46;;;;;;;47.23;24.07;;;;;;;7.06;100.00;99507.33;1743560;80;26317;-76
2022/12/23 02:11:22;;;;;;;43.95;24.07;;;;;;;7.11;100.00;99512.91;1744538;80;27619;-76
2022/12/23 02:16:53;;;;;;;46.35;24.18;;;;;;;7.14;100.00;99520.53;1753588;80;25834;-75
2022/12/23 02:20:11;;;;;;;40.00;23.50;;;;;;;7.14;100.00;99522.37;1757983;80;26989;-76
2022/12/23 02:22:55;;;;;;;41.80;22.52;;;;;;;7.16;100.00;99523.83;1757015;80;25757;-76
2022/12/23 02:25:35;;;;;;;40.85;23.55;;;;;;;7.15;100.00;99527.99;1722652;80;27463;-76
2022/12/23 02:28:43;;;;;;;36.60;21.17;;;;;;;7.16;100.00;99532.31;1744465;80;25707;-76
2022/12/23 02:31:30;;;;;;;35.75;19.02;;;;;;;7.15;100.00;99539.48;1751905;80;25766;-76
2022/12/23 02:34:18;;;;;;;32.38;19.27;;;;;;;7.16;100.00;99540.31;1749050;80;25944;-76
2022/12/23 02:36:53;;;;;;;34.50;19.48;;;;;;;7.16;100.00;99537.64;1746661;80;25935;-76
2022/12/23 02:39:48;;;;;;;33.25;19.95;;;;;;;7.17;100.00;99546.77;1745822;81;28316;-77
2022/12/23 02:42:19;;;;;;;35.03;18.30;;;;;;;7.18;100.00;99542.27;1694497;81;26006;-76
2022/12/23 02:44:55;;;;;;;;;;;;;;;7.19;100.00;99541.23;1699251;82;25902;-76
2022/12/23 02:47:26;;;;;;;34.75;18.35;;;;;;;7.18;100.00;99543.10;1737720;80;25827;-76
2022/12/23 02:49:58;;;;;;;34.48;19.23;;;;;;;7.16;100.00;99552.29;1737506;81;25846;-76
2022/12/23 02:52:28;;;;;;;26.82;16.35;;;;;;;7.15;100.00;99546.63;1727502;81;28697;-76
2022/12/23 02:55:07;;;;;;;26.23;16.85;;;;;;;7.16;100.00;99554.45;1746542;80;25956;-76
2022/12/23 02:57:38;;;;;;;27.40;16.95;;;;;;;7.15;100.00;99554.13;1740330;80;26428;-75
2022/12/23 03:00:06;;;;;;;27.67;16.62;;;;;;;7.16;100.00;99557.12;1738499;80;25955;-75
2022/12/23 03:02:38;;;;;;;26.10;16.37;;;;;;;7.17;100.00;99563.24;1742510;81;25871;-75
2022/12/23 03:05:08;;;;;;;32.50;19.70;;;;;;;7.18;100.00;99564.91;1732607;81;27487;-75
2022/12/23 03:07:41;;;;;;;28.98;18.07;;;;;;;7.16;100.00;99555.78;1733482;80;25766;-75
2022/12/23 03:10:37;;;;;;;27.95;18.25;;;;;;;7.17;100.00;99560.58;1744020;80;25877;-75
2022/12/23 03:13:33;;;;;;;25.30;16.65;;;;;;;7.17;100.00;99555.25;1746328;80;25809;-75
2022/12/23 03:16:35;;;;;;;28.70;18.35;;;;;;;7.16;100.00;99561.61;1757665;80;26016;-75
2022/12/23 03:19:34;;;;;;;31.70;19.12;;;;;;;7.13;100.00;99559.31;1739643;81;28249;-76
2022/12/23 03:22:23;;;;;;;32.90;19.20;;;;;;;7.12;100.00;99550.50;1733619;81;25751;-76
2022/12/23 03:25:01;;;;;;;27.85;17.67;;;;;;;7.13;100.00;99543.34;1737425;80;25781;-76
2022/12/23 03:27:38;;;;;;;29.57;17.82;;;;;;;7.11;100.00;99544.04;1748541;80;26548;-75
2022/12/23 03:30:12;;;;;;;28.67;17.62;;;;;;;7.09;100.00;99545.57;1732146;80;25753;-75
2022/12/23 03:32:55;;;;;;;28.65;18.45;;;;;;;7.09;100.00;99541.58;1741888;80;27494;-75
2022/12/23 03:35:27;;;;;;;23.05;15.15;;;;;;;7.09;100.00;99548.23;1732830;80;25766;-76
2022/12/23 03:37:55;;;;;;;26.20;17.37;;;;;;;7.09;100.00;99555.39;1745072;80;25755;-75
2022/12/23 03:40:33;;;;;;;26.33;17.07;;;;;;;7.08;100.00;99551.09;1754592;80;25773;-75
2022/12/23 03:43:08;;;;;;;24.12;15.95;;;;;;;7.08;100.00;99561.75;1747316;80;25546;-75
2022/12/23 03:45:40;;;;;;;23.77;16.07;;;;;;;7.08;100.00;99569.20;1746311;81;28269;-75
2022/12/23 03:48:21;;;;;;;30.75;17.80;;;;;;;7.07;100.00;99562.74;1739211;81;25707;-75
2022/12/23 03:50:52;;;;;;;24.55;16.57;;;;;;;7.07;100.00;99569.40;1744320;80;25756;-76
2022/12/23 03:53:30;;;;;;;23.70;16.20;;;;;;;7.06;100.00;99571.77;1753232;80;26368;-76
2022/12/23 03:56:08;;;;;;;23.07;16.45;;;;;;;7.08;100.00;99565.20;1745246;80;25749;-76
2022/12/23 03:58:46;;;;;;;27.42;15.95;;;;;;;7.07;100.00;99568.90;1761857;80;27146;-76
2022/12/23 04:01:42;;;;;;;24.37;15.55;;;;;;;7.08;100.00;99564.41;1752051;80;25750;-76
2022/12/23 04:04:25;;;;;;;28.90;17.10;;;;;;;7.09;100.00;99563.38;1751730;80;25727;-76
2022/12/23 04:06:59;;;;;;;24.20;15.98;;;;;;;7.08;100.00;99561.21;1755777;80;26527;-76
2022/12/23 04:09:28;;;;;;;23.50;15.48;;;;;;;7.07;100.00;99564.08;1766792;79;25779;-76
2022/12/23 04:11:57;;;;;;;26.12;16.32;;;;;;;7.07;100.00;99560.08;1706061;81;26879;-76
2022/12/23 04:14:23;;;;;;;24.98;16.75;;;;;;;7.06;100.00;99562.44;1696623;82;25863;-76
2022/12/23 04:16:54;;;;;;;23.10;16.37;;;;;;;7.03;100.00;99561.78;1737729;80;25780;-76
2022/12/23 04:19:21;;;;;;;23.45;15.85;;;;;;;7.03;100.00;99566.30;1745435;80;25773;-76
2022/12/23 04:21:47;;;;;;;25.77;16.07;;;;;;;6.98;100.00;99570.86;1737112;80;26484;-77
2022/12/23 04:24:13;;;;;;;22.30;15.68;;;;;;;6.94;100.00;99567.42;1733328;80;28332;-76
2022/12/23 04:26:40;;;;;;;23.90;16.20;;;;;;;6.89;100.00;99569.31;1751230;80;25932;-76
2022/12/23 04:29:06;;;;;;;23.00;15.55;;;;;;;6.86;100.00;99574.20;1745219;81;26438;-76
2022/12/23 04:31:32;;;;;;;23.52;15.85;;;;;;;6.84;100.00;99569.05;1710027;81;26599;-76
2022/12/23 04:33:58;;;;;;;24.60;16.48;;;;;;;6.83;100.00;99574.56;1698587;82;25859;-76
2022/12/23 04:36:25;;;;;;;23.52;16.12;;;;;;;6.80;100.00;99573.63;1698040;82;27452;-76
2022/12/23 04:38:51;;;;;;;22.52;16.07;;;;;;;6.79;100.00;99573.30;1701881;83;25823;-76
2022/12/23 04:41:17;;;;;;;23.83;16.32;;;;;;;6.78;100.00;99571.12;1738491;81;26436;-77
2022/12/23 04:43:43;;;;;;;25.25;16.70;;;;;;;6.78;100.00;99583.61;1733266;81;25879;-76
2022/12/23 04:46:10;;;;;;;23.62;16.23;;;;;;;6.77;100.00;99577.48;1750644;80;25705;-77
2022/12/23 04:48:36;;;;;;;24.77;16.70;;;;;;;6.75;100.00;99574.19;1748722;80;27447;-76
2022/12/23 04:51:04;;;;;;;28.20;16.90;;;;;;;6.73;100.00;99577.54;1756221;80;25770;-76
2022/12/23 04:53:30;;;;;;;27.37;16.17;;;;;;;6.71;100.00;99572.91;1725134;81;25793;-76
2022/12/23 04:55:56;;;;;;;24.12;15.80;;;;;;;6.69;100.00;99575.44;1741547;81;25818;-76
2022/12/23 04:58:24;;;;;;;25.10;16.90;;;;;;;6.64;100.00;99581.31;1721564;81;25706;-77
2022/12/23 05:01:03;;;;;;;25.57;17.05;;;;;;;6.61;100.00;99586.99;1715341;81;27459;-76
2022/12/23 05:03:29;;;;;;;19.90;14.87;;;;;;;6.59;100.00;99587.69;1723315;81;25833;-76
2022/12/23 05:05:56;;;;;;;23.07;16.48;;;;;;;6.56;100.00;99587.24;1720233;81;25777;-76
2022/12/23 05:08:22;;;;;;;24.00;16.55;;;;;;;6.54;100.00;99588.77;1743355;81;26500;-76
2022/12/23 05:10:49;;;;;;;21.75;16.07;;;;;;;6.53;100.00;99590.27;1713884;82;25881;-76
2022/12/23 05:13:15;;;;;;;22.17;15.75;;;;;;;6.52;100.00;99588.63;1749749;80;27513;-76
2022/12/23 05:15:50;;;;;;;24.05;16.17;;;;;;;6.51;100.00;99588.30;1747197;81;25765;-77
2022/12/23 05:18:17;;;;;;;24.00;16.60;;;;;;;6.49;100.00;99589.81;1750076;80;26272;-76
2022/12/23 05:20:44;;;;;;;27.17;17.65;;;;;;;6.47;100.00;99578.54;1753549;80;26539;-76
2022/12/23 05:23:10;;;;;;;32.28;19.82;;;;;;;6.45;100.00;99581.89;1755005;80;26388;-76
2022/12/23 05:25:38;;;;;;;27.82;18.32;;;;;;;6.42;100.00;99580.92;1739582;81;27526;-76
2022/12/23 05:28:06;;;;;;;24.30;17.87;;;;;;;6.41;100.00;99584.60;1741792;81;25978;-76
2022/12/23 05:30:33;;;;;;;27.10;19.10;;;;;;;6.39;100.00;99588.45;1753794;80;25862;-76
2022/12/23 05:32:59;;;;;;;25.75;17.32;;;;;;;6.36;100.00;99598.12;1758269;80;26527;-76
2022/12/23 05:35:27;;;;;;;27.32;18.90;;;;;;;6.33;100.00;99603.30;1741872;81;25764;-76
2022/12/23 05:37:53;;;;;;;24.70;17.32;;;;;;;6.26;100.00;99597.58;1752564;81;27431;-76
2022/12/23 05:40:20;;;;;;;27.75;18.52;;;;;;;6.23;100.00;99604.08;1750419;81;25890;-76
2022/12/23 05:42:46;;;;;;;28.62;18.20;;;;;;;6.21;100.00;99604.27;1750277;81;25844;-76
2022/12/23 05:45:12;;;;;;;26.80;18.67;;;;;;;6.16;100.00;99607.14;1748302;81;25795;-76
2022/12/23 05:47:39;;;;;;;28.30;18.40;;;;;;;6.13;100.00;99600.38;1702890;82;26468;-77
2022/12/23 05:50:07;;;;;;;29.18;19.02;;;;;;;6.14;100.00;99598.52;1702655;83;27424;-76
2022/12/23 05:52:33;;;;;;;30.23;19.25;;;;;;;6.14;100.00;99600.69;1706650;82;25864;-76
2022/12/23 05:55:01;;;;;;;28.30;18.73;;;;;;;6.12;100.00;99597.87;1703499;83;25852;-76
2022/12/23 05:57:27;;;;;;;25.70;18.07;;;;;;;6.10;100.00;99604.72;1695553;82;26534;-76
2022/12/23 05:59:53;;;;;;;28.20;18.48;;;;;;;6.09;100.00;99598.27;1697050;83;25313;-76
2022/12/23 06:02:20;;;;;;;29.25;18.73;;;;;;;6.09;100.00;99599.06;1697661;83;27453;-76
2022/12/23 06:04:47;;;;;;;28.30;18.20;;;;;;;6.10;100.00;99611.36;1696584;83;25740;-76
2022/12/23 06:07:13;;;;;;;29.30;19.20;;;;;;;6.13;100.00;99609.69;1694958;83;25951;-77
2022/12/23 06:09:39;;;;;;;26.80;17.90;;;;;;;6.13;100.00;99614.17;1694766;83;25836;-76
2022/12/23 06:12:06;;;;;;;29.85;20.17;;;;;;;6.13;100.00;99617.66;1726289;81;26500;-76
2022/12/23 06:14:32;;;;;;;27.60;19.42;;;;;;;6.14;100.00;99608.66;1728358;82;28298;-76
2022/12/23 06:16:58;;;;;;;28.52;18.50;;;;;;;6.14;100.00;99615.31;1749145;81;25784;-76
2022/12/23 06:19:26;;;;;;;27.35;19.05;;;;;;;6.16;100.00;99615.11;1700162;83;25930;-76
2022/12/23 06:21:52;;;;;;;29.00;18.92;;;;;;;6.15;100.00;99615.64;1757715;80;25925;-76
2022/12/23 06:24:18;;;;;;;26.65;19.32;;;;;;;6.17;100.00;99620.77;1752928;80;25925;-76
2022/12/23 06:26:44;;;;;;;26.95;18.87;;;;;;;6.18;100.00;99626.39;1753822;80;27505;-76
2022/12/23 06:29:11;;;;;;;25.92;20.10;;;;;;;6.18;100.00;99627.23;1754347;80;26202;-76
2022/12/23 06:31:37;;;;;;;27.20;19.37;;;;;;;6.16;100.00;99634.56;1758780;80;25768;-76
2022/12/23 06:34:03;;;;;;;27.42;19.50;;;;;;;6.17;100.00;99639.38;1750842;80;25818;-76
2022/12/23 06:36:30;;;;;;;30.25;20.25;;;;;;;6.16;100.00;99637.22;1742918;80;26383;-76
2022/12/23 06:38:56;;;;;;;26.02;17.65;;;;;;;6.17;100.00;99636.23;1748937;80;27532;-76
2022/12/23 06:41:22;;;;;;;26.02;18.48;;;;;;;6.19;100.00;99636.87;1706650;82;25974;-76
2022/12/23 06:43:49;;;;;;;27.60;19.70;;;;;;;6.19;100.00;99639.53;1726762;81;25890;-76
2022/12/23 06:46:15;;;;;;;26.23;18.32;;;;;;;6.18;100.00;99645.84;1718270;81;26625;-76
2022/12/23 06:48:41;;;;;;;27.05;18.92;;;;;;;6.19;100.00;99648.00;1712918;81;26432;-76
2022/12/23 06:51:09;;;;;;;30.97;18.45;;;;;;;6.20;100.00;99649.14;1713959;81;27470;-76
2022/12/23 06:53:36;;;;;;;28.02;18.15;;;;;;;6.21;100.00;99642.83;1693172;84;25773;-76
2022/12/23 06:56:03;;;;;;;26.23;18.42;;;;;;;6.23;100.00;99643.47;1697112;83;25786;-76
2022/12/23 06:58:30;;;;;;;27.70;18.87;;;;;;;6.23;100.00;99639.98;1711247;82;25772;-76
2022/12/23 07:00:56;;;;;;;29.12;18.82;;;;;;;6.23;100.00;99643.47;1690467;82;25758;-76
2022/12/23 07:03:22;;;;;;;35.95;21.10;;;;;;;6.22;100.00;99644.47;1713555;82;27426;-77
2022/12/23 07:05:50;;;;;;;27.52;18.60;;;;;;;6.22;100.00;99645.80;1733181;80;26449;-76
2022/12/23 07:08:18;;;;;;;26.48;18.27;;;;;;;6.22;100.00;99645.80;1704488;81;26017;-76
2022/12/23 07:10:44;;;;;;;30.20;19.57;;;;;;;6.20;100.00;99643.02;1723125;81;25778;-76
2022/12/23 07:13:11;;;;;;;26.90;18.20;;;;;;;6.20;100.00;99647.01;1725613;81;25952;-76
2022/12/23 07:15:38;;;;;;;28.73;19.67;;;;;;;6.21;100.00;99646.82;1712238;82;27456;-77
2022/12/23 07:18:06;;;;;;;29.10;18.42;;;;;;;6.20;100.00;99645.68;1715518;81;25743;-76
2022/12/23 07:20:32;;;;;;;29.90;20.62;;;;;;;6.19;100.00;99644.02;1690781;82;25852;-76
2022/12/23 07:22:58;;;;;;;25.40;18.32;;;;;;;6.21;100.00;99634.85;1734372;81;27137;-76
2022/12/23 07:25:26;;;;;;;25.97;18.10;;;;;;;6.25;100.00;99635.30;1735888;81;26428;-76
2022/12/23 07:27:54;;;;;;;29.30;18.87;;;;;;;6.29;100.00;99634.45;1735728;80;26927;-76
2022/12/23 07:30:24;;;;;;;24.30;16.85;;;;;;;6.32;100.00;99634.07;1729523;80;25771;-76
2022/12/23 07:32:51;;;;;;;27.60;17.95;;;;;;;6.33;100.00;99635.20;1737501;80;32529;-76
2022/12/23 07:35:18;;;;;;;28.40;18.15;;;;;;;6.34;100.00;99638.20;1735654;80;26564;-76
2022/12/23 07:37:45;;;;;;;26.93;18.15;;;;;;;6.38;100.00;99646.63;1714611;83;25697;-76
2022/12/23 07:40:11;;;;;;;26.20;18.48;;;;;;;6.39;100.00;99658.44;1692285;83;27475;-76
2022/12/23 07:42:40;;;;;;;29.25;18.85;;;;;;;6.40;100.00;99656.08;1732883;81;25911;-76
2022/12/23 07:45:07;;;;;;;29.27;18.73;;;;;;;6.43;100.00;99657.56;1706521;82;25842;-76
2022/12/23 07:47:34;;;;;;;27.15;18.80;;;;;;;6.46;100.00;99654.55;1710661;81;25772;-76
2022/12/23 07:50:00;;;;;;;29.42;19.27;;;;;;;6.45;100.00;99647.06;1702254;82;25728;-76
2022/12/23 07:52:28;;;;;;;29.42;19.98;;;;;;;6.47;100.00;99653.52;1721114;81;27456;-76
2022/12/23 07:54:54;;;;;;;31.25;20.80;;;;;;;6.47;100.00;99651.69;1747974;80;25838;-77
2022/12/23 07:57:20;;;;;;;29.15;20.32;;;;;;;6.46;100.00;99650.55;1737216;80;25334;-76
2022/12/23 07:59:47;;;;;;;30.72;21.75;;;;;;;6.46;100.00;99655.88;1738639;80;25862;-76
2022/12/23 08:02:13;;;;;;;31.60;21.00;;;;;;;6.46;100.00;99654.55;1728801;80;25900;-76
2022/12/23 08:04:39;;;;;;;32.93;22.62;;;;;;;6.46;100.00;99660.67;1730097;81;27454;-76
2022/12/23 08:07:05;;;;;;;32.45;20.70;;;;;;;6.43;100.00;99649.08;1736989;80;25959;-76
2022/12/23 08:09:32;;;;;;;34.85;23.02;;;;;;;6.43;100.00;99646.42;1745067;80;26558;-76
2022/12/23 08:11:58;;;;;;;35.33;22.45;;;;;;;6.42;100.00;99639.94;1739682;80;25856;-76
2022/12/23 08:14:24;;;;;;;32.42;21.55;;;;;;;6.44;100.00;99637.91;1709495;81;26524;-76
2022/12/23 08:16:50;;;;;;;35.65;23.55;;;;;;;6.43;100.00;99633.62;1720523;81;27441;-76
2022/12/23 08:19:17;;;;;;;33.78;22.73;;;;;;;6.43;100.00;99631.80;1717675;81;25315;-76
2022/12/23 08:21:43;;;;;;;30.97;20.37;;;;;;;6.44;100.00;99630.77;1696448;82;25870;-76
2022/12/23 08:24:09;;;;;;;33.02;22.25;;;;;;;6.45;100.00;99631.59;1728629;80;26358;-76
2022/12/23 08:26:36;;;;;;;35.78;23.65;;;;;;;6.48;100.00;99636.03;1712946;81;25791;-77
2022/12/23 08:29:02;;;;;;;29.70;19.42;;;;;;;6.49;100.00;99630.22;1685223;83;27445;-76
2022/12/23 08:31:30;;;;;;;28.95;20.05;;;;;;;6.50;100.00;99631.89;1735761;80;25864;-76
2022/12/23 08:33:59;;;;;;;30.25;20.25;;;;;;;6.48;100.00;99633.38;1742431;80;25806;-76
2022/12/23 08:36:30;;;;;;;32.03;20.45;;;;;;;6.49;100.00;99632.38;1713795;81;25950;-76
2022/12/23 08:39:01;;;;;;;31.33;21.23;;;;;;;6.49;100.00;99630.22;1710676;81;25775;-75
2022/12/23 08:41:30;;;;;;;;;;;;;;;6.50;100.00;99632.69;1715624;82;28271;-75
2022/12/23 08:43:56;;;;;;;33.45;21.68;;;;;;;6.52;100.00;99630.66;1714871;83;25908;-75
2022/12/23 08:46:24;;;;;;;32.73;21.60;;;;;;;6.55;100.00;99621.50;1723304;82;26370;-75
2022/12/23 08:48:51;;;;;;;33.18;20.70;;;;;;;6.57;100.00;99620.80;1742193;81;26328;-76
2022/12/23 08:51:20;;;;;;;34.13;22.25;;;;;;;6.60;100.00;99621.28;1717490;81;25800;-75
2022/12/23 08:53:47;;;;;;;33.08;21.17;;;;;;;6.66;100.00;99618.38;1710169;81;27479;-75
2022/12/23 08:56:18;;;;;;;32.65;21.23;;;;;;;6.68;100.00;99617.68;1715567;81;25818;-75
2022/12/23 08:58:49;;;;;;;32.03;20.37;;;;;;;6.71;100.00;99623.48;1734873;80;25722;-76
2022/12/23 09:01:18;;;;;;;42.73;30.15;;;;;;;6.74;100.00;99619.59;1732144;80;26604;-75
2022/12/23 09:03:45;;;;;;;55.43;36.90;;;;;;;6.75;100.00;99618.09;1744883;81;25760;-75
2022/12/23 09:06:19;;;;;;;47.50;27.60;;;;;;;6.78;100.00;99608.89;1740163;81;27540;-75
2022/12/23 09:08:46;;;;;;;36.10;25.05;;;;;;;6.81;100.00;99612.52;1727986;80;25773;-76
2022/12/23 09:11:16;;;;;;;41.98;26.90;;;;;;;6.81;100.00;99597.38;1746531;80;25822;-75
2022/12/23 09:13:43;;;;;;;39.40;24.30;;;;;;;6.88;100.00;99602.29;1731735;81;26746;-75
2022/12/23 09:16:10;;;;;;;36.23;23.57;;;;;;;6.90;100.00;99597.60;1747389;80;25842;-75
2022/12/23 09:18:37;;;;;;;37.03;24.52;;;;;;;6.90;100.00;99597.60;1730686;80;27536;-75
2022/12/23 09:21:06;;;;;;;38.80;25.10;;;;;;;6.90;100.00;99590.95;1731063;80;26151;-75
2022/12/23 09:23:33;;;;;;;71.67;45.28;;;;;;;6.92;100.00;99586.76;1744903;80;25883;-76
2022/12/23 09:26:00;;;;;;;55.80;33.20;;;;;;;6.95;100.00;99585.86;1714628;81;25952;-75
2022/12/23 09:28:26;;;;;;;63.55;38.55;;;;;;;6.96;100.00;99576.88;1692591;83;26621;-75
2022/12/23 09:30:53;;;;;;;53.65;31.20;;;;;;;6.97;100.00;99579.84;1706791;82;28676;-75
2022/12/23 09:33:19;;;;;;;54.53;31.00;;;;;;;6.99;100.00;99571.16;1702550;82;25742;-76
2022/12/23 09:35:45;;;;;;;46.13;30.25;;;;;;;7.02;100.00;99573.95;1702455;83;25751;-76
2022/12/23 09:38:12;;;;;;;42.78;28.15;;;;;;;7.05;100.00;99568.27;1700906;82;26493;-76
2022/12/23 09:40:40;;;;;;;38.60;25.82;;;;;;;7.09;100.00;99572.70;1696972;82;26421;-76
2022/12/23 09:43:30;;;;;;;36.25;22.55;;;;;;;7.11;100.00;99566.17;1708593;82;27463;-76
2022/12/23 09:46:18;;;;;;;40.03;23.80;;;;;;;7.15;100.00;99569.27;1710100;83;25799;-75
2022/12/23 09:49:10;;;;;;;38.80;25.12;;;;;;;7.18;100.00;99563.58;1708750;82;25965;-75
2022/12/23 09:51:37;;;;;;;42.98;25.60;;;;;;;7.21;100.00;99561.34;1696977;82;25687;-75
2022/12/23 09:54:23;;;;;;;43.33;26.23;;;;;;;7.21;100.00;99556.02;1704168;83;25916;-75
2022/12/23 09:57:16;;;;;;;41.28;23.85;;;;;;;7.24;100.00;99550.83;1702482;82;27461;-75
2022/12/23 10:00:14;;;;;;;43.63;25.92;;;;;;;7.24;100.00;99542.34;1706932;82;26192;-75
2022/12/23 10:03:01;;;;;;;42.50;24.47;;;;;;;7.26;100.00;99545.63;1701023;82;26065;-75
2022/12/23 10:05:51;;;;;;;43.13;25.68;;;;;;;7.29;100.00;99539.91;1702303;82;25829;-75
2022/12/23 10:08:37;;;;;;;42.08;24.98;;;;;;;7.30;100.00;99541.56;1703866;82;25826;-75
2022/12/23 10:11:12;;;;;;;46.80;26.95;;;;;;;7.31;100.00;99541.06;1749476;80;27472;-75
2022/12/23 10:13:52;;;;;;;44.55;28.12;;;;;;;7.31;100.00;99539.73;1739924;80;25785;-75
2022/12/23 10:16:23;;;;;;;42.25;25.77;;;;;;;7.37;100.00;99541.13;1748112;80;25767;-75
2022/12/23 10:18:57;;;;;;;40.95;25.43;;;;;;;7.39;100.00;99534.27;1741662;81;25805;-75
2022/12/23 10:21:50;;;;;;;42.83;25.43;;;;;;;7.41;100.00;99529.56;1752277;80;25773;-75
2022/12/23 10:24:28;;;;;;;48.00;29.70;;;;;;;7.44;100.00;99527.33;1707258;81;27490;-75
2022/12/23 10:26:59;;;;;;;41.10;26.73;;;;;;;7.46;100.00;99519.97;1695925;82;26415;-75
2022/12/23 10:29:28;;;;;;;;;;;;;;;7.49;100.00;99521.42;1733677;80;25318;-75
2022/12/23 10:32:12;;;;;;;41.95;26.70;;;;;;;7.49;100.00;99516.09;1746817;80;26598;-75
2022/12/23 10:34:53;;;;;;;47.10;28.20;;;;;;;7.44;100.00;99508.68;1708967;83;25812;-75
2022/12/23 10:37:25;;;;;;;44.73;28.75;;;;;;;7.46;100.00;99505.84;1738105;80;28253;-74
2022/12/23 10:40:06;;;;;;;48.25;28.38;;;;;;;7.45;100.00;99499.69;1748930;80;25807;-75
2022/12/23 10:42:41;;;;;;;42.48;26.68;;;;;;;7.46;100.00;99502.65;1741637;80;25875;-75
2022/12/23 10:45:16;;;;;;;42.67;25.43;;;;;;;7.48;100.00;99500.64;1740638;80;25773;-75
2022/12/23 10:48:04;;;;;;;41.30;26.87;;;;;;;7.49;100.00;99499.61;1728562;81;25989;-75
2022/12/23 10:51:15;;;;;;;42.98;27.37;;;;;;;7.50;100.00;99493.28;1649906;84;27483;-76
2022/12/23 10:54:02;;;;;;;43.85;26.45;;;;;;;7.49;100.00;99478.30;1719814;82;25287;-76
2022/12/23 10:56:29;;;;;;;41.33;27.40;;;;;;;7.45;100.00;99477.54;1693380;84;25738;-76
2022/12/23 10:58:59;;;;;;;43.75;27.60;;;;;;;7.40;100.00;99475.45;1741316;80;26517;-75
2022/12/23 11:01:29;;;;;;;49.30;29.05;;;;;;;7.38;100.00;99474.83;1751925;80;25702;-75
2022/12/23 11:04:06;;;;;;;41.45;25.52;;;;;;;7.36;100.00;99469.37;1718494;81;28274;-75
2022/12/23 11:06:38;;;;;;;43.98;26.57;;;;;;;7.32;100.00;99462.28;1743681;81;25263;-76
2022/12/23 11:09:09;;;;;;;43.50;25.32;;;;;;;7.31;100.00;99466.48;1737182;81;25845;-75
2022/12/23 11:11:58;;;;;;;;;;;;;;;7.29;100.00;99467.98;1750413;80;25816;-76
2022/12/23 11:14:55;;;;;;;40.00;25.55;;;;;;;7.27;100.00;99463.36;1738759;81;26340;-76
2022/12/23 11:17:32;;;;;;;44.00;27.45;;;;;;;7.25;100.00;99459.27;1742437;81;27469;-76
2022/12/23 11:20:16;;;;;;;40.85;25.30;;;;;;;7.26;100.00;99448.41;1747547;81;25804;-75
2022/12/23 11:22:54;;;;;;;39.80;25.25;;;;;;;7.27;100.00;99450.05;1733108;81;26338;-76
2022/12/23 11:25:41;;;;;;;42.88;24.67;;;;;;;7.29;100.00;99449.88;1748769;80;26547;-76
2022/12/23 11:28:18;;;;;;;39.20;25.30;;;;;;;7.30;100.00;99451.00;1729485;81;25927;-86
2022/12/23 11:31:07;;;;;;;39.48;25.10;;;;;;;7.31;100.00;99447.84;1728862;81;27429;-84
2022/12/23 11:33:54;;;;;;;42.70;26.00;;;;;;;7.30;100.00;99440.84;1681522;82;25947;-84
2022/12/23 11:36:29;;;;;;;37.67;25.00;;;;;;;7.27;100.00;99438.06;1715336;82;25695;-83
2022/12/23 11:39:24;;;;;;;45.73;27.37;;;;;;;7.25;100.00;99424.11;1700272;82;25836;-81
2022/12/23 11:41:56;;;;;;;51.77;30.23;;;;;;;7.25;100.00;99429.97;1706587;82;25944;-83
2022/12/23 11:44:42;;;;;;;44.58;27.70;;;;;;;7.24;100.00;99423.81;1719139;83;27481;-81
2022/12/23 11:47:44;;;;;;;45.85;30.12;;;;;;;7.24;100.00;99431.80;1745489;81;25836;-82
2022/12/23 11:50:36;;;;;;;53.45;34.78;;;;;;;7.21;100.00;99426.02;1745518;80;25729;-83
2022/12/23 11:53:13;;;;;;;64.42;38.90;;;;;;;7.20;100.00;99422.56;1736833;80;25797;-84
2022/12/23 11:56:12;;;;;;;66.55;39.50;;;;;;;7.20;100.00;99415.07;1721570;81;26000;-84
2022/12/23 11:58:52;;;;;;;56.80;38.63;;;;;;;7.19;100.00;99412.91;1732553;80;27460;-87
2022/12/23 12:01:22;;;;;;;48.92;32.95;;;;;;;7.19;100.00;99413.41;1689082;83;26466;-79
2022/12/23 12:03:52;;;;;;;;;;;;;;;7.21;100.00;99412.20;1728747;81;25724;-81
2022/12/23 12:06:19;;;;;;;50.78;33.80;;;;;;;7.24;100.00;99413.16;1722608;82;25827;-81
2022/12/23 12:08:50;;;;;;;110.15;66.65;;;;;;;7.22;100.00;99415.20;1715088;81;25976;-82
2022/12/23 12:11:20;;;;;;;;;;;;;;;7.27;100.00;99407.43;1699122;82;27452;-87
2022/12/23 12:13:57;;;;;;;122.85;69.15;;;;;;;7.31;100.00;99418.54;1709073;82;25769;-85